sensor_id;sensor_type;location;lat;lon;timestamp;P1;durP1;ratioP1;P2;durP2;ratioP2
35897;SDS011;21997;47.118;15.346;2022-08-19T00:00:45;5.60;;;4.00;;
35897;SDS011;21997;47.118;15.346;2022-08-19T00:03:10;6.87;;;3.63;;
35897;SDS011;21997;47.118;15.346;2022-08-19T00:05:36;9.03;;;3.60;;
35897;SDS011;21997;47.118;15.346;2022-08-19T00:08:09;9.53;;;3.90;;
35897;SDS011;21997;47.118;15.346;2022-08-19T00:10:34;9.17;;;4.50;;
35897;SDS011;21997;47.118;15.346;2022-08-19T00:13:04;13.10;;;4.20;;
35897;SDS011;21997;47.118;15.346;2022-08-19T00:15:30;9.63;;;4.80;;
35897;SDS011;21997;47.118;15.346;2022-08-19T00:18:02;7.63;;;4.27;;
35897;SDS011;21997;47.118;15.346;2022-08-19T00:20:27;6.87;;;4.47;;
35897;SDS011;21997;47.118;15.346;2022-08-19T00:22:53;12.87;;;4.37;;
35897;SDS011;21997;47.118;15.346;2022-08-19T00:25:21;10.23;;;4.07;;
35897;SDS011;21997;47.118;15.346;2022-08-19T00:28:06;5.90;;;3.63;;
35897;SDS011;21997;47.118;15.346;2022-08-19T00:33:38;11.50;;;4.37;;
35897;SDS011;21997;47.118;15.346;2022-08-19T00:36:12;10.30;;;4.57;;
35897;SDS011;21997;47.118;15.346;2022-08-19T00:38:48;10.67;;;4.00;;
35897;SDS011;21997;47.118;15.346;2022-08-19T00:41:18;12.73;;;4.40;;
35897;SDS011;21997;47.118;15.346;2022-08-19T00:43:56;8.30;;;4.07;;
35897;SDS011;21997;47.118;15.346;2022-08-19T00:46:27;9.30;;;4.37;;
35897;SDS011;21997;47.118;15.346;2022-08-19T00:48:57;7.70;;;4.53;;
35897;SDS011;21997;47.118;15.346;2022-08-19T00:51:26;7.27;;;4.10;;
35897;SDS011;21997;47.118;15.346;2022-08-19T00:53:54;7.90;;;3.87;;
35897;SDS011;21997;47.118;15.346;2022-08-19T00:56:20;6.67;;;3.80;;
35897;SDS011;21997;47.118;15.346;2022-08-19T00:59:13;5.80;;;3.97;;
35897;SDS011;21997;47.118;15.346;2022-08-19T01:02:08;10.03;;;4.77;;
35897;SDS011;21997;47.118;15.346;2022-08-19T01:04:38;12.10;;;4.90;;
35897;SDS011;21997;47.118;15.346;2022-08-19T01:07:03;8.13;;;4.30;;
35897;SDS011;21997;47.118;15.346;2022-08-19T01:09:30;9.60;;;4.33;;
35897;SDS011;21997;47.118;15.346;2022-08-19T01:11:56;9.17;;;5.23;;
35897;SDS011;21997;47.118;15.346;2022-08-19T01:14:22;12.43;;;5.50;;
35897;SDS011;21997;47.118;15.346;2022-08-19T01:16:47;10.43;;;4.97;;
35897;SDS011;21997;47.118;15.346;2022-08-19T01:19:18;11.23;;;5.10;;
35897;SDS011;21997;47.118;15.346;2022-08-19T01:21:49;10.63;;;4.43;;
35897;SDS011;21997;47.118;15.346;2022-08-19T01:25:02;14.20;;;4.87;;
35897;SDS011;21997;47.118;15.346;2022-08-19T01:27:47;7.87;;;4.80;;
35897;SDS011;21997;47.118;15.346;2022-08-19T01:30:28;12.20;;;5.17;;
35897;SDS011;21997;47.118;15.346;2022-08-19T01:32:56;11.97;;;4.80;;
35897;SDS011;21997;47.118;15.346;2022-08-19T01:35:24;8.97;;;5.27;;
35897;SDS011;21997;47.118;15.346;2022-08-19T01:37:58;11.10;;;5.77;;
35897;SDS011;21997;47.118;15.346;2022-08-19T01:40:27;12.17;;;5.60;;
35897;SDS011;21997;47.118;15.346;2022-08-19T01:42:59;12.03;;;4.83;;
35897;SDS011;21997;47.118;15.346;2022-08-19T01:45:28;11.33;;;5.30;;
35897;SDS011;21997;47.118;15.346;2022-08-19T01:47:56;11.70;;;5.73;;
35897;SDS011;21997;47.118;15.346;2022-08-19T01:50:23;15.83;;;5.27;;
35897;SDS011;21997;47.118;15.346;2022-08-19T01:53:09;10.57;;;4.57;;
35897;SDS011;21997;47.118;15.346;2022-08-19T01:55:37;13.10;;;5.63;;
35897;SDS011;21997;47.118;15.346;2022-08-19T01:58:05;8.67;;;4.63;;
35897;SDS011;21997;47.118;15.346;2022-08-19T02:00:37;11.93;;;5.57;;
35897;SDS011;21997;47.118;15.346;2022-08-19T02:03:03;10.57;;;5.17;;
35897;SDS011;21997;47.118;15.346;2022-08-19T02:05:29;14.70;;;5.60;;
35897;SDS011;21997;47.118;15.346;2022-08-19T02:07:55;9.70;;;5.77;;
35897;SDS011;21997;47.118;15.346;2022-08-19T02:10:21;9.30;;;4.93;;
35897;SDS011;21997;47.118;15.346;2022-08-19T02:12:50;10.87;;;5.07;;
35897;SDS011;21997;47.118;15.346;2022-08-19T02:15:19;7.60;;;4.97;;
35897;SDS011;21997;47.118;15.346;2022-08-19T02:17:47;8.97;;;5.33;;
35897;SDS011;21997;47.118;15.346;2022-08-19T02:20:13;10.30;;;5.73;;
35897;SDS011;21997;47.118;15.346;2022-08-19T02:22:44;14.27;;;5.73;;
35897;SDS011;21997;47.118;15.346;2022-08-19T02:25:11;14.13;;;6.03;;
35897;SDS011;21997;47.118;15.346;2022-08-19T02:27:41;9.57;;;5.27;;
35897;SDS011;21997;47.118;15.346;2022-08-19T02:30:15;11.57;;;5.93;;
35897;SDS011;21997;47.118;15.346;2022-08-19T02:32:44;10.90;;;5.77;;
35897;SDS011;21997;47.118;15.346;2022-08-19T02:35:10;12.17;;;5.50;;
35897;SDS011;21997;47.118;15.346;2022-08-19T02:37:36;12.53;;;5.50;;
35897;SDS011;21997;47.118;15.346;2022-08-19T02:40:31;9.70;;;6.23;;
35897;SDS011;21997;47.118;15.346;2022-08-19T02:42:59;9.37;;;5.63;;
35897;SDS011;21997;47.118;15.346;2022-08-19T02:45:32;11.93;;;6.03;;
35897;SDS011;21997;47.118;15.346;2022-08-19T02:47:59;8.30;;;5.30;;
35897;SDS011;21997;47.118;15.346;2022-08-19T02:50:24;12.90;;;5.33;;
35897;SDS011;21997;47.118;15.346;2022-08-19T02:52:50;8.53;;;5.67;;
35897;SDS011;21997;47.118;15.346;2022-08-19T02:55:16;9.27;;;5.50;;
35897;SDS011;21997;47.118;15.346;2022-08-19T02:57:41;12.77;;;5.20;;
35897;SDS011;21997;47.118;15.346;2022-08-19T03:00:07;11.07;;;6.20;;
35897;SDS011;21997;47.118;15.346;2022-08-19T03:02:37;8.77;;;5.03;;
35897;SDS011;21997;47.118;15.346;2022-08-19T03:05:03;6.83;;;5.13;;
35897;SDS011;21997;47.118;15.346;2022-08-19T03:07:30;8.93;;;5.80;;
35897;SDS011;21997;47.118;15.346;2022-08-19T03:09:55;9.37;;;5.27;;
35897;SDS011;21997;47.118;15.346;2022-08-19T03:12:21;11.33;;;5.90;;
35897;SDS011;21997;47.118;15.346;2022-08-19T03:14:46;8.80;;;5.53;;
35897;SDS011;21997;47.118;15.346;2022-08-19T03:17:13;7.73;;;5.13;;
35897;SDS011;21997;47.118;15.346;2022-08-19T03:19:38;6.83;;;4.80;;
35897;SDS011;21997;47.118;15.346;2022-08-19T03:22:04;9.40;;;5.83;;
35897;SDS011;21997;47.118;15.346;2022-08-19T03:24:30;12.73;;;6.20;;
35897;SDS011;21997;47.118;15.346;2022-08-19T03:26:58;10.53;;;5.70;;
35897;SDS011;21997;47.118;15.346;2022-08-19T03:29:25;12.80;;;5.90;;
35897;SDS011;21997;47.118;15.346;2022-08-19T03:32:02;12.40;;;5.37;;
35897;SDS011;21997;47.118;15.346;2022-08-19T03:34:37;12.17;;;5.80;;
35897;SDS011;21997;47.118;15.346;2022-08-19T03:37:04;7.40;;;4.90;;
35897;SDS011;21997;47.118;15.346;2022-08-19T03:39:32;14.37;;;6.17;;
35897;SDS011;21997;47.118;15.346;2022-08-19T03:41:58;10.73;;;5.77;;
35897;SDS011;21997;47.118;15.346;2022-08-19T03:44:27;14.43;;;5.33;;
35897;SDS011;21997;47.118;15.346;2022-08-19T03:46:55;8.30;;;5.90;;
35897;SDS011;21997;47.118;15.346;2022-08-19T03:49:22;8.87;;;5.50;;
35897;SDS011;21997;47.118;15.346;2022-08-19T03:51:53;10.90;;;6.47;;
35897;SDS011;21997;47.118;15.346;2022-08-19T03:54:23;10.57;;;5.93;;
35897;SDS011;21997;47.118;15.346;2022-08-19T03:56:50;12.97;;;5.63;;
35897;SDS011;21997;47.118;15.346;2022-08-19T03:59:18;9.63;;;5.57;;
35897;SDS011;21997;47.118;15.346;2022-08-19T04:01:46;8.10;;;5.33;;
35897;SDS011;21997;47.118;15.346;2022-08-19T04:04:12;8.03;;;5.50;;
35897;SDS011;21997;47.118;15.346;2022-08-19T04:06:39;9.47;;;5.63;;
35897;SDS011;21997;47.118;15.346;2022-08-19T04:09:05;8.63;;;5.20;;
35897;SDS011;21997;47.118;15.346;2022-08-19T04:11:34;5.83;;;4.17;;
35897;SDS011;21997;47.118;15.346;2022-08-19T04:14:08;8.83;;;5.17;;
35897;SDS011;21997;47.118;15.346;2022-08-19T04:16:34;8.57;;;4.87;;
35897;SDS011;21997;47.118;15.346;2022-08-19T04:19:00;7.00;;;4.80;;
35897;SDS011;21997;47.118;15.346;2022-08-19T04:21:27;7.90;;;5.30;;
35897;SDS011;21997;47.118;15.346;2022-08-19T04:23:54;9.90;;;5.17;;
35897;SDS011;21997;47.118;15.346;2022-08-19T04:26:31;8.37;;;5.03;;
35897;SDS011;21997;47.118;15.346;2022-08-19T04:29:03;7.40;;;5.43;;
35897;SDS011;21997;47.118;15.346;2022-08-19T04:31:47;8.03;;;4.97;;
35897;SDS011;21997;47.118;15.346;2022-08-19T04:34:14;11.07;;;5.40;;
35897;SDS011;21997;47.118;15.346;2022-08-19T04:36:41;13.47;;;5.37;;
35897;SDS011;21997;47.118;15.346;2022-08-19T04:39:16;10.73;;;5.60;;
35897;SDS011;21997;47.118;15.346;2022-08-19T04:41:44;8.87;;;4.83;;
35897;SDS011;21997;47.118;15.346;2022-08-19T04:44:30;8.27;;;5.17;;
35897;SDS011;21997;47.118;15.346;2022-08-19T04:46:57;7.50;;;5.07;;
35897;SDS011;21997;47.118;15.346;2022-08-19T04:49:23;7.10;;;4.77;;
35897;SDS011;21997;47.118;15.346;2022-08-19T04:51:50;7.93;;;4.73;;
35897;SDS011;21997;47.118;15.346;2022-08-19T04:54:18;8.27;;;5.13;;
35897;SDS011;21997;47.118;15.346;2022-08-19T04:56:48;9.50;;;5.33;;
35897;SDS011;21997;47.118;15.346;2022-08-19T04:59:15;9.57;;;5.17;;
35897;SDS011;21997;47.118;15.346;2022-08-19T05:01:42;10.70;;;5.10;;
35897;SDS011;21997;47.118;15.346;2022-08-19T05:04:07;7.53;;;4.87;;
35897;SDS011;21997;47.118;15.346;2022-08-19T05:06:34;11.33;;;5.43;;
35897;SDS011;21997;47.118;15.346;2022-08-19T05:09:01;7.43;;;4.90;;
35897;SDS011;21997;47.118;15.346;2022-08-19T05:11:32;7.67;;;5.00;;
35897;SDS011;21997;47.118;15.346;2022-08-19T05:13:59;9.90;;;5.13;;
35897;SDS011;21997;47.118;15.346;2022-08-19T05:16:24;11.63;;;5.17;;
35897;SDS011;21997;47.118;15.346;2022-08-19T05:18:51;10.70;;;5.90;;
35897;SDS011;21997;47.118;15.346;2022-08-19T05:21:35;8.30;;;4.87;;
35897;SDS011;21997;47.118;15.346;2022-08-19T05:24:20;9.40;;;4.47;;
35897;SDS011;21997;47.118;15.346;2022-08-19T05:26:48;11.43;;;4.87;;
35897;SDS011;21997;47.118;15.346;2022-08-19T05:29:16;10.87;;;5.03;;
35897;SDS011;21997;47.118;15.346;2022-08-19T05:31:44;5.80;;;4.83;;
35897;SDS011;21997;47.118;15.346;2022-08-19T05:34:10;8.63;;;4.87;;
35897;SDS011;21997;47.118;15.346;2022-08-19T05:36:37;7.13;;;4.50;;
35897;SDS011;21997;47.118;15.346;2022-08-19T05:39:05;7.50;;;4.90;;
35897;SDS011;21997;47.118;15.346;2022-08-19T05:41:31;13.93;;;4.93;;
35897;SDS011;21997;47.118;15.346;2022-08-19T05:43:57;8.07;;;4.90;;
35897;SDS011;21997;47.118;15.346;2022-08-19T05:46:24;8.50;;;4.70;;
35897;SDS011;21997;47.118;15.346;2022-08-19T05:48:49;6.63;;;4.10;;
35897;SDS011;21997;47.118;15.346;2022-08-19T05:51:15;9.73;;;4.27;;
35897;SDS011;21997;47.118;15.346;2022-08-19T05:53:41;7.33;;;4.40;;
35897;SDS011;21997;47.118;15.346;2022-08-19T05:56:12;6.20;;;4.67;;
35897;SDS011;21997;47.118;15.346;2022-08-19T05:58:40;5.37;;;3.63;;
35897;SDS011;21997;47.118;15.346;2022-08-19T06:01:17;6.20;;;4.47;;
35897;SDS011;21997;47.118;15.346;2022-08-19T06:03:43;7.70;;;4.13;;
35897;SDS011;21997;47.118;15.346;2022-08-19T06:06:10;6.60;;;4.57;;
35897;SDS011;21997;47.118;15.346;2022-08-19T06:08:38;9.30;;;4.40;;
35897;SDS011;21997;47.118;15.346;2022-08-19T06:13:39;8.67;;;4.60;;
35897;SDS011;21997;47.118;15.346;2022-08-19T06:16:04;7.90;;;4.10;;
35897;SDS011;21997;47.118;15.346;2022-08-19T06:18:30;9.57;;;4.57;;
35897;SDS011;21997;47.118;15.346;2022-08-19T06:20:55;10.33;;;4.70;;
35897;SDS011;21997;47.118;15.346;2022-08-19T06:23:21;7.73;;;4.57;;
35897;SDS011;21997;47.118;15.346;2022-08-19T06:25:46;11.63;;;4.83;;
35897;SDS011;21997;47.118;15.346;2022-08-19T06:28:12;8.60;;;4.80;;
35897;SDS011;21997;47.118;15.346;2022-08-19T06:30:37;11.90;;;5.00;;
35897;SDS011;21997;47.118;15.346;2022-08-19T06:33:03;7.23;;;4.23;;
35897;SDS011;21997;47.118;15.346;2022-08-19T06:35:28;9.53;;;4.43;;
35897;SDS011;21997;47.118;15.346;2022-08-19T06:37:54;8.80;;;4.47;;
35897;SDS011;21997;47.118;15.346;2022-08-19T06:40:20;10.73;;;5.27;;
35897;SDS011;21997;47.118;15.346;2022-08-19T06:42:45;9.87;;;5.33;;
35897;SDS011;21997;47.118;15.346;2022-08-19T06:45:11;8.00;;;4.67;;
35897;SDS011;21997;47.118;15.346;2022-08-19T06:47:36;8.47;;;4.20;;
35897;SDS011;21997;47.118;15.346;2022-08-19T06:50:02;11.33;;;4.37;;
35897;SDS011;21997;47.118;15.346;2022-08-19T06:52:34;10.93;;;4.57;;
35897;SDS011;21997;47.118;15.346;2022-08-19T06:55:01;7.33;;;4.43;;
35897;SDS011;21997;47.118;15.346;2022-08-19T06:57:26;5.77;;;3.90;;
35897;SDS011;21997;47.118;15.346;2022-08-19T06:59:52;16.80;;;10.60;;
35897;SDS011;21997;47.118;15.346;2022-08-19T07:02:18;9.73;;;4.27;;
35897;SDS011;21997;47.118;15.346;2022-08-19T07:04:44;6.37;;;3.30;;
35897;SDS011;21997;47.118;15.346;2022-08-19T07:07:10;5.53;;;3.43;;
35897;SDS011;21997;47.118;15.346;2022-08-19T07:09:38;5.10;;;3.13;;
35897;SDS011;21997;47.118;15.346;2022-08-19T07:12:06;5.13;;;3.40;;
35897;SDS011;21997;47.118;15.346;2022-08-19T07:14:33;11.20;;;3.50;;
35897;SDS011;21997;47.118;15.346;2022-08-19T07:17:02;6.67;;;2.93;;
35897;SDS011;21997;47.118;15.346;2022-08-19T07:19:28;5.90;;;2.70;;
35897;SDS011;21997;47.118;15.346;2022-08-19T07:21:54;3.33;;;2.47;;
35897;SDS011;21997;47.118;15.346;2022-08-19T07:24:24;5.23;;;3.17;;
35897;SDS011;21997;47.118;15.346;2022-08-19T07:26:51;4.30;;;2.70;;
35897;SDS011;21997;47.118;15.346;2022-08-19T07:29:18;5.37;;;3.37;;
35897;SDS011;21997;47.118;15.346;2022-08-19T07:31:44;5.70;;;3.27;;
35897;SDS011;21997;47.118;15.346;2022-08-19T07:34:10;5.93;;;3.40;;
35897;SDS011;21997;47.118;15.346;2022-08-19T07:36:39;6.87;;;3.23;;
35897;SDS011;21997;47.118;15.346;2022-08-19T07:39:10;5.57;;;3.13;;
35897;SDS011;21997;47.118;15.346;2022-08-19T07:41:38;10.17;;;3.33;;
35897;SDS011;21997;47.118;15.346;2022-08-19T07:44:04;5.07;;;3.50;;
35897;SDS011;21997;47.118;15.346;2022-08-19T07:46:33;8.33;;;3.47;;
35897;SDS011;21997;47.118;15.346;2022-08-19T07:48:59;4.70;;;3.00;;
35897;SDS011;21997;47.118;15.346;2022-08-19T07:51:25;3.90;;;2.97;;
35897;SDS011;21997;47.118;15.346;2022-08-19T07:53:52;6.60;;;3.37;;
35897;SDS011;21997;47.118;15.346;2022-08-19T07:56:18;9.00;;;3.57;;
35897;SDS011;21997;47.118;15.346;2022-08-19T07:58:45;7.53;;;3.57;;
35897;SDS011;21997;47.118;15.346;2022-08-19T08:01:23;6.67;;;3.80;;
35897;SDS011;21997;47.118;15.346;2022-08-19T08:03:50;6.80;;;3.20;;
35897;SDS011;21997;47.118;15.346;2022-08-19T08:06:42;7.17;;;3.40;;
35897;SDS011;21997;47.118;15.346;2022-08-19T08:09:33;5.97;;;3.20;;
35897;SDS011;21997;47.118;15.346;2022-08-19T08:12:04;5.87;;;2.97;;
35897;SDS011;21997;47.118;15.346;2022-08-19T08:14:33;10.20;;;3.93;;
35897;SDS011;21997;47.118;15.346;2022-08-19T08:17:00;6.00;;;2.80;;
35897;SDS011;21997;47.118;15.346;2022-08-19T08:19:26;4.83;;;2.90;;
35897;SDS011;21997;47.118;15.346;2022-08-19T08:21:57;6.97;;;3.57;;
35897;SDS011;21997;47.118;15.346;2022-08-19T08:24:23;6.13;;;3.23;;
35897;SDS011;21997;47.118;15.346;2022-08-19T08:26:50;5.20;;;2.77;;
35897;SDS011;21997;47.118;15.346;2022-08-19T08:29:15;8.37;;;2.63;;
35897;SDS011;21997;47.118;15.346;2022-08-19T08:31:42;3.50;;;2.37;;
35897;SDS011;21997;47.118;15.346;2022-08-19T08:34:09;4.80;;;2.30;;
35897;SDS011;21997;47.118;15.346;2022-08-19T08:36:38;4.80;;;2.60;;
35897;SDS011;21997;47.118;15.346;2022-08-19T08:39:07;7.20;;;2.80;;
35897;SDS011;21997;47.118;15.346;2022-08-19T08:44:02;6.50;;;2.80;;
35897;SDS011;21997;47.118;15.346;2022-08-19T08:46:43;2.53;;;2.17;;
35897;SDS011;21997;47.118;15.346;2022-08-19T08:51:54;5.23;;;2.70;;
35897;SDS011;21997;47.118;15.346;2022-08-19T08:54:27;5.53;;;2.40;;
35897;SDS011;21997;47.118;15.346;2022-08-19T08:56:58;4.33;;;3.00;;
35897;SDS011;21997;47.118;15.346;2022-08-19T08:59:26;5.60;;;2.67;;
35897;SDS011;21997;47.118;15.346;2022-08-19T09:01:56;3.50;;;2.83;;
35897;SDS011;21997;47.118;15.346;2022-08-19T09:04:22;5.13;;;2.73;;
35897;SDS011;21997;47.118;15.346;2022-08-19T09:09:30;5.77;;;2.70;;
35897;SDS011;21997;47.118;15.346;2022-08-19T09:12:12;7.80;;;2.67;;
35897;SDS011;21997;47.118;15.346;2022-08-19T09:15:09;7.47;;;2.37;;
35897;SDS011;21997;47.118;15.346;2022-08-19T09:17:36;4.47;;;2.47;;
35897;SDS011;21997;47.118;15.346;2022-08-19T09:22:40;4.93;;;2.60;;
35897;SDS011;21997;47.118;15.346;2022-08-19T09:25:09;6.73;;;3.70;;
35897;SDS011;21997;47.118;15.346;2022-08-19T09:27:36;5.70;;;2.53;;
35897;SDS011;21997;47.118;15.346;2022-08-19T09:30:03;5.40;;;2.77;;
35897;SDS011;21997;47.118;15.346;2022-08-19T09:32:30;7.67;;;2.80;;
35897;SDS011;21997;47.118;15.346;2022-08-19T09:34:55;4.27;;;2.50;;
35897;SDS011;21997;47.118;15.346;2022-08-19T09:37:24;4.37;;;2.23;;
35897;SDS011;21997;47.118;15.346;2022-08-19T09:39:50;6.00;;;2.67;;
35897;SDS011;21997;47.118;15.346;2022-08-19T09:42:16;5.60;;;2.80;;
35897;SDS011;21997;47.118;15.346;2022-08-19T09:44:41;4.67;;;2.90;;
35897;SDS011;21997;47.118;15.346;2022-08-19T09:47:08;5.07;;;3.00;;
35897;SDS011;21997;47.118;15.346;2022-08-19T09:49:36;3.97;;;2.40;;
35897;SDS011;21997;47.118;15.346;2022-08-19T09:52:02;4.60;;;2.40;;
35897;SDS011;21997;47.118;15.346;2022-08-19T09:54:28;3.57;;;2.60;;
35897;SDS011;21997;47.118;15.346;2022-08-19T09:56:54;7.23;;;2.97;;
35897;SDS011;21997;47.118;15.346;2022-08-19T09:59:20;2.67;;;2.17;;
35897;SDS011;21997;47.118;15.346;2022-08-19T10:01:46;5.73;;;2.80;;
35897;SDS011;21997;47.118;15.346;2022-08-19T10:04:12;4.37;;;2.50;;
35897;SDS011;21997;47.118;15.346;2022-08-19T10:06:40;5.63;;;2.87;;
35897;SDS011;21997;47.118;15.346;2022-08-19T10:09:07;11.20;;;3.07;;
35897;SDS011;21997;47.118;15.346;2022-08-19T10:11:34;6.47;;;3.13;;
35897;SDS011;21997;47.118;15.346;2022-08-19T10:14:01;6.50;;;2.90;;
35897;SDS011;21997;47.118;15.346;2022-08-19T10:16:27;3.37;;;2.63;;
35897;SDS011;21997;47.118;15.346;2022-08-19T10:18:53;5.80;;;2.77;;
35897;SDS011;21997;47.118;15.346;2022-08-19T10:21:23;7.47;;;2.90;;
35897;SDS011;21997;47.118;15.346;2022-08-19T10:23:51;5.17;;;2.90;;
35897;SDS011;21997;47.118;15.346;2022-08-19T10:26:21;7.57;;;2.97;;
35897;SDS011;21997;47.118;15.346;2022-08-19T10:28:49;6.47;;;2.73;;
35897;SDS011;21997;47.118;15.346;2022-08-19T10:31:15;4.10;;;2.90;;
35897;SDS011;21997;47.118;15.346;2022-08-19T10:33:45;4.57;;;2.60;;
35897;SDS011;21997;47.118;15.346;2022-08-19T10:36:15;5.93;;;3.50;;
35897;SDS011;21997;47.118;15.346;2022-08-19T10:38:43;7.37;;;3.23;;
35897;SDS011;21997;47.118;15.346;2022-08-19T10:41:20;5.97;;;3.40;;
35897;SDS011;21997;47.118;15.346;2022-08-19T10:43:49;7.70;;;3.20;;
35897;SDS011;21997;47.118;15.346;2022-08-19T10:46:17;5.67;;;2.60;;
35897;SDS011;21997;47.118;15.346;2022-08-19T10:48:43;7.37;;;3.03;;
35897;SDS011;21997;47.118;15.346;2022-08-19T10:51:12;8.20;;;3.40;;
35897;SDS011;21997;47.118;15.346;2022-08-19T10:53:56;5.80;;;3.27;;
35897;SDS011;21997;47.118;15.346;2022-08-19T10:56:23;6.70;;;3.43;;
35897;SDS011;21997;47.118;15.346;2022-08-19T10:59:07;7.83;;;3.10;;
35897;SDS011;21997;47.118;15.346;2022-08-19T11:01:33;6.33;;;3.03;;
35897;SDS011;21997;47.118;15.346;2022-08-19T11:04:03;4.30;;;2.87;;
35897;SDS011;21997;47.118;15.346;2022-08-19T11:06:30;8.03;;;3.83;;
35897;SDS011;21997;47.118;15.346;2022-08-19T11:08:57;5.63;;;2.97;;
35897;SDS011;21997;47.118;15.346;2022-08-19T11:11:23;8.97;;;2.80;;
35897;SDS011;21997;47.118;15.346;2022-08-19T11:13:51;4.90;;;2.60;;
35897;SDS011;21997;47.118;15.346;2022-08-19T11:16:25;6.00;;;2.50;;
35897;SDS011;21997;47.118;15.346;2022-08-19T11:25:56;5.60;;;2.63;;
35897;SDS011;21997;47.118;15.346;2022-08-19T11:28:26;6.17;;;2.43;;
35897;SDS011;21997;47.118;15.346;2022-08-19T11:34:36;6.60;;;2.20;;
35897;SDS011;21997;47.118;15.346;2022-08-19T11:37:06;8.10;;;2.80;;
35897;SDS011;21997;47.118;15.346;2022-08-19T11:49:33;2.83;;;2.20;;
35897;SDS011;21997;47.118;15.346;2022-08-19T11:52:00;7.57;;;2.67;;
35897;SDS011;21997;47.118;15.346;2022-08-19T11:54:26;8.70;;;2.53;;
35897;SDS011;21997;47.118;15.346;2022-08-19T11:56:58;4.90;;;2.17;;
35897;SDS011;21997;47.118;15.346;2022-08-19T11:59:23;6.60;;;2.37;;
35897;SDS011;21997;47.118;15.346;2022-08-19T12:01:49;9.13;;;2.50;;
35897;SDS011;21997;47.118;15.346;2022-08-19T12:04:14;3.90;;;2.10;;
35897;SDS011;21997;47.118;15.346;2022-08-19T12:06:40;5.88;;;1.88;;
35897;SDS011;21997;47.118;15.346;2022-08-19T12:09:06;5.32;;;2.45;;
35897;SDS011;21997;47.118;15.346;2022-08-19T12:11:33;6.03;;;2.58;;
35897;SDS011;21997;47.118;15.346;2022-08-19T12:13:59;4.15;;;2.58;;
35897;SDS011;21997;47.118;15.346;2022-08-19T12:16:26;6.05;;;2.08;;
35897;SDS011;21997;47.118;15.346;2022-08-19T12:18:52;6.53;;;2.17;;
35897;SDS011;21997;47.118;15.346;2022-08-19T12:21:23;7.35;;;2.60;;
35897;SDS011;21997;47.118;15.346;2022-08-19T12:23:54;4.82;;;2.17;;
35897;SDS011;21997;47.118;15.346;2022-08-19T12:26:20;3.22;;;2.20;;
35897;SDS011;21997;47.118;15.346;2022-08-19T12:28:46;9.65;;;3.13;;
35897;SDS011;21997;47.118;15.346;2022-08-19T12:31:22;4.25;;;2.15;;
35897;SDS011;21997;47.118;15.346;2022-08-19T12:34:03;5.05;;;2.30;;
35897;SDS011;21997;47.118;15.346;2022-08-19T12:36:46;4.72;;;2.63;;
35897;SDS011;21997;47.118;15.346;2022-08-19T12:39:50;9.07;;;2.88;;
35897;SDS011;21997;47.118;15.346;2022-08-19T12:42:22;6.50;;;2.17;;
35897;SDS011;21997;47.118;15.346;2022-08-19T12:44:47;6.05;;;2.17;;
35897;SDS011;21997;47.118;15.346;2022-08-19T12:47:15;5.20;;;2.70;;
35897;SDS011;21997;47.118;15.346;2022-08-19T12:49:42;4.45;;;2.10;;
35897;SDS011;21997;47.118;15.346;2022-08-19T12:52:09;4.95;;;1.58;;
35897;SDS011;21997;47.118;15.346;2022-08-19T12:57:34;5.90;;;1.95;;
35897;SDS011;21997;47.118;15.346;2022-08-19T13:00:07;7.97;;;2.60;;
35897;SDS011;21997;47.118;15.346;2022-08-19T13:02:45;4.75;;;1.92;;
35897;SDS011;21997;47.118;15.346;2022-08-19T13:08:32;2.90;;;2.03;;
35897;SDS011;21997;47.118;15.346;2022-08-19T13:11:05;3.33;;;1.67;;
35897;SDS011;21997;47.118;15.346;2022-08-19T13:14:31;4.47;;;1.77;;
35897;SDS011;21997;47.118;15.346;2022-08-19T13:17:06;7.10;;;1.80;;
35897;SDS011;21997;47.118;15.346;2022-08-19T13:19:35;4.78;;;2.17;;
35897;SDS011;21997;47.118;15.346;2022-08-19T13:22:14;6.65;;;1.95;;
35897;SDS011;21997;47.118;15.346;2022-08-19T13:25:01;5.60;;;1.70;;
35897;SDS011;21997;47.118;15.346;2022-08-19T13:27:30;5.65;;;2.33;;
35897;SDS011;21997;47.118;15.346;2022-08-19T13:29:58;7.28;;;2.13;;
35897;SDS011;21997;47.118;15.346;2022-08-19T13:32:45;5.25;;;2.33;;
35897;SDS011;21997;47.118;15.346;2022-08-19T13:35:29;6.20;;;2.05;;
35897;SDS011;21997;47.118;15.346;2022-08-19T13:37:56;3.92;;;1.55;;
35897;SDS011;21997;47.118;15.346;2022-08-19T13:40:29;4.32;;;1.70;;
35897;SDS011;21997;47.118;15.346;2022-08-19T13:56:13;4.63;;;1.75;;
35897;SDS011;21997;47.118;15.346;2022-08-19T14:02:28;5.15;;;2.10;;
35897;SDS011;21997;47.118;15.346;2022-08-19T14:11:43;5.78;;;2.08;;
35897;SDS011;21997;47.118;15.346;2022-08-19T14:17:44;9.00;;;2.15;;
35897;SDS011;21997;47.118;15.346;2022-08-19T14:30:03;4.90;;;2.63;;
35897;SDS011;21997;47.118;15.346;2022-08-19T14:32:29;5.97;;;1.92;;
35897;SDS011;21997;47.118;15.346;2022-08-19T14:35:02;6.72;;;2.28;;
35897;SDS011;21997;47.118;15.346;2022-08-19T14:37:40;3.80;;;2.03;;
35897;SDS011;21997;47.118;15.346;2022-08-19T14:40:09;5.78;;;1.83;;
35897;SDS011;21997;47.118;15.346;2022-08-19T14:42:35;5.10;;;2.28;;
35897;SDS011;21997;47.118;15.346;2022-08-19T14:45:03;7.90;;;2.28;;
35897;SDS011;21997;47.118;15.346;2022-08-19T14:47:30;6.75;;;2.97;;
35897;SDS011;21997;47.118;15.346;2022-08-19T14:49:56;6.20;;;2.45;;
35897;SDS011;21997;47.118;15.346;2022-08-19T14:52:21;6.55;;;2.63;;
35897;SDS011;21997;47.118;15.346;2022-08-19T14:54:57;6.18;;;2.20;;
35897;SDS011;21997;47.118;15.346;2022-08-19T14:57:35;4.88;;;2.17;;
35897;SDS011;21997;47.118;15.346;2022-08-19T15:03:33;6.38;;;2.40;;
35897;SDS011;21997;47.118;15.346;2022-08-19T15:05:59;7.97;;;2.70;;
35897;SDS011;21997;47.118;15.346;2022-08-19T15:08:25;5.35;;;2.00;;
35897;SDS011;21997;47.118;15.346;2022-08-19T15:10:52;5.57;;;2.65;;
35897;SDS011;21997;47.118;15.346;2022-08-19T15:13:18;4.32;;;2.20;;
35897;SDS011;21997;47.118;15.346;2022-08-19T15:15:43;7.57;;;2.13;;
35897;SDS011;21997;47.118;15.346;2022-08-19T15:18:10;6.93;;;2.58;;
35897;SDS011;21997;47.118;15.346;2022-08-19T15:20:36;8.70;;;3.47;;
35897;SDS011;21997;47.118;15.346;2022-08-19T15:23:02;6.28;;;2.58;;
35897;SDS011;21997;47.118;15.346;2022-08-19T15:25:28;5.85;;;2.47;;
35897;SDS011;21997;47.118;15.346;2022-08-19T15:27:58;12.10;;;2.15;;
35897;SDS011;21997;47.118;15.346;2022-08-19T15:30:25;5.65;;;2.45;;
35897;SDS011;21997;47.118;15.346;2022-08-19T15:32:52;5.78;;;3.05;;
35897;SDS011;21997;47.118;15.346;2022-08-19T15:35:19;6.70;;;2.35;;
35897;SDS011;21997;47.118;15.346;2022-08-19T15:37:48;7.72;;;2.85;;
35897;SDS011;21997;47.118;15.346;2022-08-19T15:40:14;5.35;;;2.80;;
35897;SDS011;21997;47.118;15.346;2022-08-19T15:42:40;3.80;;;2.53;;
35897;SDS011;21997;47.118;15.346;2022-08-19T15:45:07;8.88;;;2.08;;
35897;SDS011;21997;47.118;15.346;2022-08-19T15:47:34;6.35;;;2.53;;
35897;SDS011;21997;47.118;15.346;2022-08-19T15:50:00;5.68;;;2.33;;
35897;SDS011;21997;47.118;15.346;2022-08-19T15:52:29;5.45;;;2.50;;
35897;SDS011;21997;47.118;15.346;2022-08-19T15:54:54;7.47;;;2.60;;
35897;SDS011;21997;47.118;15.346;2022-08-19T15:57:29;4.05;;;2.10;;
35897;SDS011;21997;47.118;15.346;2022-08-19T16:00:05;5.55;;;2.50;;
35897;SDS011;21997;47.118;15.346;2022-08-19T16:03:08;6.68;;;2.30;;
35897;SDS011;21997;47.118;15.346;2022-08-19T16:05:58;8.32;;;2.63;;
35897;SDS011;21997;47.118;15.346;2022-08-19T16:08:42;4.53;;;2.20;;